sensor_id;sensor_type;location;lat;lon;timestamp;temperature;humidity
1702;DHT22;848;48.354;10.064;2023-05-27T00:02:11;14.70;99.90
1702;DHT22;848;48.354;10.064;2023-05-27T00:04:38;14.70;99.90
1702;DHT22;848;48.354;10.064;2023-05-27T00:07:05;14.70;99.90
1702;DHT22;848;48.354;10.064;2023-05-27T00:09:32;14.60;99.90
1702;DHT22;848;48.354;10.064;2023-05-27T00:11:59;14.60;99.90
1702;DHT22;848;48.354;10.064;2023-05-27T00:14:27;14.60;99.90
1702;DHT22;848;48.354;10.064;2023-05-27T00:16:54;14.50;99.90
1702;DHT22;848;48.354;10.064;2023-05-27T00:19:21;14.50;99.90
1702;DHT22;848;48.354;10.064;2023-05-27T00:21:49;14.50;99.90
1702;DHT22;848;48.354;10.064;2023-05-27T00:24:17;14.50;99.90
1702;DHT22;848;48.354;10.064;2023-05-27T00:26:44;14.40;99.90
1702;DHT22;848;48.354;10.064;2023-05-27T00:29:11;14.40;99.90
1702;DHT22;848;48.354;10.064;2023-05-27T00:31:39;14.30;99.90
1702;DHT22;848;48.354;10.064;2023-05-27T00:34:06;14.40;99.90
1702;DHT22;848;48.354;10.064;2023-05-27T00:36:33;14.30;99.90
1702;DHT22;848;48.354;10.064;2023-05-27T00:39:01;14.20;99.90
1702;DHT22;848;48.354;10.064;2023-05-27T00:41:28;14.20;99.90
1702;DHT22;848;48.354;10.064;2023-05-27T00:43:56;14.20;99.90
1702;DHT22;848;48.354;10.064;2023-05-27T00:46:23;14.10;99.90
1702;DHT22;848;48.354;10.064;2023-05-27T00:48:51;14.10;99.90
1702;DHT22;848;48.354;10.064;2023-05-27T00:51:18;14.10;99.90
1702;DHT22;848;48.354;10.064;2023-05-27T00:53:46;14.00;99.90
1702;DHT22;848;48.354;10.064;2023-05-27T00:56:13;14.10;99.90
1702;DHT22;848;48.354;10.064;2023-05-27T00:58:41;14.10;99.90
1702;DHT22;848;48.354;10.064;2023-05-27T01:01:08;14.00;99.90
1702;DHT22;848;48.354;10.064;2023-05-27T01:03:35;13.90;99.90
1702;DHT22;848;48.354;10.064;2023-05-27T01:06:14;14.00;99.90
1702;DHT22;848;48.354;10.064;2023-05-27T01:08:51;14.00;99.90
1702;DHT22;848;48.354;10.064;2023-05-27T01:11:28;13.90;99.90
1702;DHT22;848;48.354;10.064;2023-05-27T01:14:01;13.90;99.90
1702;DHT22;848;48.354;10.064;2023-05-27T01:16:32;13.80;99.90
1702;DHT22;848;48.354;10.064;2023-05-27T01:19:01;13.80;99.90
1702;DHT22;848;48.354;10.064;2023-05-27T01:21:31;13.80;99.90
1702;DHT22;848;48.354;10.064;2023-05-27T01:24:05;13.80;99.90
1702;DHT22;848;48.354;10.064;2023-05-27T01:26:32;13.70;99.90
1702;DHT22;848;48.354;10.064;2023-05-27T01:28:59;13.70;99.90
1702;DHT22;848;48.354;10.064;2023-05-27T01:31:33;13.70;99.90
1702;DHT22;848;48.354;10.064;2023-05-27T01:34:03;13.70;99.90
1702;DHT22;848;48.354;10.064;2023-05-27T01:36:39;13.70;99.90
1702;DHT22;848;48.354;10.064;2023-05-27T01:39:11;13.70;99.90
1702;DHT22;848;48.354;10.064;2023-05-27T01:41:39;13.60;99.90
1702;DHT22;848;48.354;10.064;2023-05-27T01:44:06;13.60;99.90
1702;DHT22;848;48.354;10.064;2023-05-27T01:46:34;13.60;99.90
1702;DHT22;848;48.354;10.064;2023-05-27T01:49:01;13.50;99.90
1702;DHT22;848;48.354;10.064;2023-05-27T01:51:28;13.40;99.90
1702;DHT22;848;48.354;10.064;2023-05-27T01:53:55;13.40;99.90
1702;DHT22;848;48.354;10.064;2023-05-27T01:56:23;13.40;99.90
1702;DHT22;848;48.354;10.064;2023-05-27T01:58:50;13.30;99.90
1702;DHT22;848;48.354;10.064;2023-05-27T02:01:17;13.30;99.90
1702;DHT22;848;48.354;10.064;2023-05-27T02:03:44;13.30;99.90
1702;DHT22;848;48.354;10.064;2023-05-27T02:06:11;13.30;99.90
1702;DHT22;848;48.354;10.064;2023-05-27T02:08:37;13.30;99.90
1702;DHT22;848;48.354;10.064;2023-05-27T02:11:05;13.20;99.90
1702;DHT22;848;48.354;10.064;2023-05-27T02:13:33;13.20;99.90
1702;DHT22;848;48.354;10.064;2023-05-27T02:16:00;13.20;99.90
1702;DHT22;848;48.354;10.064;2023-05-27T02:18:27;13.10;99.90
1702;DHT22;848;48.354;10.064;2023-05-27T02:20:54;13.10;99.90
1702;DHT22;848;48.354;10.064;2023-05-27T02:23:20;13.10;99.90
1702;DHT22;848;48.354;10.064;2023-05-27T02:25:47;13.10;99.90
1702;DHT22;848;48.354;10.064;2023-05-27T02:28:15;13.10;99.90
1702;DHT22;848;48.354;10.064;2023-05-27T02:30:43;13.00;99.90
1702;DHT22;848;48.354;10.064;2023-05-27T02:33:10;13.00;99.90
1702;DHT22;848;48.354;10.064;2023-05-27T02:35:37;13.00;99.90
1702;DHT22;848;48.354;10.064;2023-05-27T02:38:04;13.00;99.90
1702;DHT22;848;48.354;10.064;2023-05-27T02:40:31;13.00;99.90
1702;DHT22;848;48.354;10.064;2023-05-27T02:42:57;13.00;99.90
1702;DHT22;848;48.354;10.064;2023-05-27T02:45:25;12.90;99.90
1702;DHT22;848;48.354;10.064;2023-05-27T02:47:53;12.90;99.90
1702;DHT22;848;48.354;10.064;2023-05-27T02:50:22;12.90;99.90
1702;DHT22;848;48.354;10.064;2023-05-27T02:52:49;12.90;99.90
1702;DHT22;848;48.354;10.064;2023-05-27T02:55:15;12.80;99.90
1702;DHT22;848;48.354;10.064;2023-05-27T02:57:42;12.80;99.90
1702;DHT22;848;48.354;10.064;2023-05-27T03:00:11;12.80;99.90
1702;DHT22;848;48.354;10.064;2023-05-27T03:02:39;12.70;99.90
1702;DHT22;848;48.354;10.064;2023-05-27T03:05:08;12.70;99.90
1702;DHT22;848;48.354;10.064;2023-05-27T03:07:35;12.70;99.90
1702;DHT22;848;48.354;10.064;2023-05-27T03:10:02;12.60;99.90
1702;DHT22;848;48.354;10.064;2023-05-27T03:12:29;12.60;99.90
1702;DHT22;848;48.354;10.064;2023-05-27T03:14:55;12.60;99.90
1702;DHT22;848;48.354;10.064;2023-05-27T03:17:22;12.60;99.90
1702;DHT22;848;48.354;10.064;2023-05-27T03:19:49;12.60;99.90
1702;DHT22;848;48.354;10.064;2023-05-27T03:22:17;12.50;99.90
1702;DHT22;848;48.354;10.064;2023-05-27T03:24:44;12.50;99.90
1702;DHT22;848;48.354;10.064;2023-05-27T03:27:11;12.60;99.90
1702;DHT22;848;48.354;10.064;2023-05-27T03:29:39;12.50;99.90
1702;DHT22;848;48.354;10.064;2023-05-27T03:32:07;12.50;99.90
1702;DHT22;848;48.354;10.064;2023-05-27T03:34:34;12.50;99.90
1702;DHT22;848;48.354;10.064;2023-05-27T03:37:01;12.50;99.90
1702;DHT22;848;48.354;10.064;2023-05-27T03:39:29;12.50;99.90
1702;DHT22;848;48.354;10.064;2023-05-27T03:41:56;12.50;99.90
1702;DHT22;848;48.354;10.064;2023-05-27T03:44:23;12.50;99.90
1702;DHT22;848;48.354;10.064;2023-05-27T03:46:50;12.50;99.90
1702;DHT22;848;48.354;10.064;2023-05-27T03:49:17;12.50;99.90
1702;DHT22;848;48.354;10.064;2023-05-27T03:51:44;12.50;99.90
1702;DHT22;848;48.354;10.064;2023-05-27T03:54:11;12.50;99.90
1702;DHT22;848;48.354;10.064;2023-05-27T03:56:39;12.50;99.90
1702;DHT22;848;48.354;10.064;2023-05-27T03:59:06;12.50;99.90
1702;DHT22;848;48.354;10.064;2023-05-27T04:01:33;12.50;99.90
1702;DHT22;848;48.354;10.064;2023-05-27T04:04:01;12.50;99.90
1702;DHT22;848;48.354;10.064;2023-05-27T04:06:28;12.50;99.90
1702;DHT22;848;48.354;10.064;2023-05-27T04:08:54;12.50;99.90
1702;DHT22;848;48.354;10.064;2023-05-27T04:11:21;12.50;99.90
1702;DHT22;848;48.354;10.064;2023-05-27T04:13:50;12.50;99.90
1702;DHT22;848;48.354;10.064;2023-05-27T04:16:17;12.40;99.90
1702;DHT22;848;48.354;10.064;2023-05-27T04:18:44;12.40;99.90
1702;DHT22;848;48.354;10.064;2023-05-27T04:21:14;12.40;99.90
1702;DHT22;848;48.354;10.064;2023-05-27T04:23:41;12.50;99.90
1702;DHT22;848;48.354;10.064;2023-05-27T04:26:08;12.50;99.90
1702;DHT22;848;48.354;10.064;2023-05-27T04:28:35;12.50;99.90
1702;DHT22;848;48.354;10.064;2023-05-27T04:31:03;12.50;99.90
1702;DHT22;848;48.354;10.064;2023-05-27T04:33:30;12.50;99.90
1702;DHT22;848;48.354;10.064;2023-05-27T04:35:57;12.50;99.90
1702;DHT22;848;48.354;10.064;2023-05-27T04:38:24;12.50;99.90
1702;DHT22;848;48.354;10.064;2023-05-27T04:40:51;12.50;99.90
1702;DHT22;848;48.354;10.064;2023-05-27T04:43:19;12.50;99.90
1702;DHT22;848;48.354;10.064;2023-05-27T04:45:46;12.60;99.90
1702;DHT22;848;48.354;10.064;2023-05-27T04:48:15;12.60;99.90
1702;DHT22;848;48.354;10.064;2023-05-27T04:50:42;12.60;99.90
1702;DHT22;848;48.354;10.064;2023-05-27T04:53:09;12.70;99.90
1702;DHT22;848;48.354;10.064;2023-05-27T04:55:36;12.70;99.90
1702;DHT22;848;48.354;10.064;2023-05-27T04:58:04;12.70;99.90
1702;DHT22;848;48.354;10.064;2023-05-27T05:00:31;12.70;99.90
1702;DHT22;848;48.354;10.064;2023-05-27T05:03:16;12.70;99.90
1702;DHT22;848;48.354;10.064;2023-05-27T05:05:48;12.70;99.90
1702;DHT22;848;48.354;10.064;2023-05-27T05:08:15;12.80;99.90
1702;DHT22;848;48.354;10.064;2023-05-27T05:10:42;12.80;99.90
1702;DHT22;848;48.354;10.064;2023-05-27T05:13:09;12.80;99.90
1702;DHT22;848;48.354;10.064;2023-05-27T05:15:35;12.90;99.90
1702;DHT22;848;48.354;10.064;2023-05-27T05:18:03;12.90;99.90
1702;DHT22;848;48.354;10.064;2023-05-27T05:20:31;12.90;99.90
1702;DHT22;848;48.354;10.064;2023-05-27T05:22:58;13.00;99.90
1702;DHT22;848;48.354;10.064;2023-05-27T05:25:25;13.10;99.90
1702;DHT22;848;48.354;10.064;2023-05-27T05:27:52;13.10;99.90
1702;DHT22;848;48.354;10.064;2023-05-27T05:30:19;13.10;99.90
1702;DHT22;848;48.354;10.064;2023-05-27T05:32:46;13.20;99.90
1702;DHT22;848;48.354;10.064;2023-05-27T05:35:12;13.30;99.90
1702;DHT22;848;48.354;10.064;2023-05-27T05:37:41;13.40;99.90
1702;DHT22;848;48.354;10.064;2023-05-27T05:40:10;13.50;99.90
1702;DHT22;848;48.354;10.064;2023-05-27T05:42:37;13.60;99.90
1702;DHT22;848;48.354;10.064;2023-05-27T05:45:05;13.60;99.90
1702;DHT22;848;48.354;10.064;2023-05-27T05:47:32;13.70;99.90
1702;DHT22;848;48.354;10.064;2023-05-27T05:49:59;13.80;99.90
1702;DHT22;848;48.354;10.064;2023-05-27T05:52:25;13.80;99.90
1702;DHT22;848;48.354;10.064;2023-05-27T05:54:54;14.00;99.90
1702;DHT22;848;48.354;10.064;2023-05-27T05:57:21;14.10;99.90
1702;DHT22;848;48.354;10.064;2023-05-27T05:59:47;14.20;99.90
1702;DHT22;848;48.354;10.064;2023-05-27T06:02:14;14.30;99.90
1702;DHT22;848;48.354;10.064;2023-05-27T06:04:41;14.40;99.90
1702;DHT22;848;48.354;10.064;2023-05-27T06:07:08;14.60;99.90
1702;DHT22;848;48.354;10.064;2023-05-27T06:09:35;14.70;99.90
1702;DHT22;848;48.354;10.064;2023-05-27T06:12:04;14.90;99.90
1702;DHT22;848;48.354;10.064;2023-05-27T06:14:31;15.10;99.90
1702;DHT22;848;48.354;10.064;2023-05-27T06:16:58;15.50;99.90
1702;DHT22;848;48.354;10.064;2023-05-27T06:19:25;16.20;99.90
1702;DHT22;848;48.354;10.064;2023-05-27T06:21:52;17.30;99.90
1702;DHT22;848;48.354;10.064;2023-05-27T06:24:19;18.00;99.90
1702;DHT22;848;48.354;10.064;2023-05-27T06:26:46;18.40;99.90
1702;DHT22;848;48.354;10.064;2023-05-27T06:29:16;18.80;99.90
1702;DHT22;848;48.354;10.064;2023-05-27T06:31:43;19.10;99.90
1702;DHT22;848;48.354;10.064;2023-05-27T06:34:12;19.60;99.90
1702;DHT22;848;48.354;10.064;2023-05-27T06:36:38;19.80;99.90
1702;DHT22;848;48.354;10.064;2023-05-27T06:39:05;20.20;99.90
1702;DHT22;848;48.354;10.064;2023-05-27T06:41:32;20.20;99.90
1702;DHT22;848;48.354;10.064;2023-05-27T06:43:59;20.70;99.90
1702;DHT22;848;48.354;10.064;2023-05-27T06:46:27;20.70;99.90
1702;DHT22;848;48.354;10.064;2023-05-27T06:48:54;20.60;99.90
1702;DHT22;848;48.354;10.064;2023-05-27T06:51:21;20.70;99.90
1702;DHT22;848;48.354;10.064;2023-05-27T06:53:48;20.10;99.90
1702;DHT22;848;48.354;10.064;2023-05-27T06:56:15;20.40;99.90
1702;DHT22;848;48.354;10.064;2023-05-27T06:58:44;20.80;99.90
1702;DHT22;848;48.354;10.064;2023-05-27T07:01:11;20.40;99.90
1702;DHT22;848;48.354;10.064;2023-05-27T07:03:40;20.60;99.90
1702;DHT22;848;48.354;10.064;2023-05-27T07:06:07;20.90;99.90
1702;DHT22;848;48.354;10.064;2023-05-27T07:08:34;20.70;99.90
1702;DHT22;848;48.354;10.064;2023-05-27T07:11:01;21.30;99.90
1702;DHT22;848;48.354;10.064;2023-05-27T07:13:28;21.80;99.90
1702;DHT22;848;48.354;10.064;2023-05-27T07:15:54;22.00;99.90
1702;DHT22;848;48.354;10.064;2023-05-27T07:18:21;22.20;99.90
1702;DHT22;848;48.354;10.064;2023-05-27T07:20:50;22.30;99.90
1702;DHT22;848;48.354;10.064;2023-05-27T07:23:16;22.10;99.90
1702;DHT22;848;48.354;10.064;2023-05-27T07:25:43;21.50;99.90
1702;DHT22;848;48.354;10.064;2023-05-27T07:28:10;20.80;99.90
1702;DHT22;848;48.354;10.064;2023-05-27T07:30:37;20.40;99.90
1702;DHT22;848;48.354;10.064;2023-05-27T07:33:04;21.00;99.90
1702;DHT22;848;48.354;10.064;2023-05-27T07:35:31;21.50;99.90
1702;DHT22;848;48.354;10.064;2023-05-27T07:37:59;21.80;99.90
1702;DHT22;848;48.354;10.064;2023-05-27T07:40:28;21.80;99.90
1702;DHT22;848;48.354;10.064;2023-05-27T07:42:55;22.10;99.90
1702;DHT22;848;48.354;10.064;2023-05-27T07:45:22;21.90;99.90
1702;DHT22;848;48.354;10.064;2023-05-27T07:47:49;21.60;99.90
1702;DHT22;848;48.354;10.064;2023-05-27T07:50:16;22.00;99.90
1702;DHT22;848;48.354;10.064;2023-05-27T07:52:43;22.10;99.90
1702;DHT22;848;48.354;10.064;2023-05-27T07:55:11;22.30;99.90
1702;DHT22;848;48.354;10.064;2023-05-27T07:57:38;22.20;99.90
1702;DHT22;848;48.354;10.064;2023-05-27T08:00:06;22.50;99.90
1702;DHT22;848;48.354;10.064;2023-05-27T08:02:33;23.00;99.90
1702;DHT22;848;48.354;10.064;2023-05-27T08:05:00;23.30;99.90
1702;DHT22;848;48.354;10.064;2023-05-27T08:07:27;23.10;99.90
1702;DHT22;848;48.354;10.064;2023-05-27T08:09:54;23.20;99.90
1702;DHT22;848;48.354;10.064;2023-05-27T08:12:22;23.10;99.90
1702;DHT22;848;48.354;10.064;2023-05-27T08:14:49;23.00;99.90
1702;DHT22;848;48.354;10.064;2023-05-27T08:17:16;22.70;99.90
1702;DHT22;848;48.354;10.064;2023-05-27T08:19:43;23.00;99.90
1702;DHT22;848;48.354;10.064;2023-05-27T08:22:10;23.30;99.90
1702;DHT22;848;48.354;10.064;2023-05-27T08:24:37;23.30;99.90
1702;DHT22;848;48.354;10.064;2023-05-27T08:27:04;23.70;99.90
1702;DHT22;848;48.354;10.064;2023-05-27T08:29:33;23.90;99.90
1702;DHT22;848;48.354;10.064;2023-05-27T08:32:01;23.50;99.90
1702;DHT22;848;48.354;10.064;2023-05-27T08:34:28;23.20;99.90
1702;DHT22;848;48.354;10.064;2023-05-27T08:36:55;23.30;99.90
1702;DHT22;848;48.354;10.064;2023-05-27T08:39:22;23.30;99.90
1702;DHT22;848;48.354;10.064;2023-05-27T08:41:49;23.10;99.90
1702;DHT22;848;48.354;10.064;2023-05-27T08:44:16;23.20;99.90
1702;DHT22;848;48.354;10.064;2023-05-27T08:46:45;23.40;99.90
1702;DHT22;848;48.354;10.064;2023-05-27T08:49:14;23.50;99.90
1702;DHT22;848;48.354;10.064;2023-05-27T08:51:41;23.10;99.90
1702;DHT22;848;48.354;10.064;2023-05-27T08:54:09;23.40;99.90
1702;DHT22;848;48.354;10.064;2023-05-27T08:56:36;23.30;99.90
1702;DHT22;848;48.354;10.064;2023-05-27T08:59:03;23.10;99.90
1702;DHT22;848;48.354;10.064;2023-05-27T09:01:31;23.00;99.90
1702;DHT22;848;48.354;10.064;2023-05-27T09:04:00;22.70;99.90
1702;DHT22;848;48.354;10.064;2023-05-27T09:06:27;22.80;99.90
1702;DHT22;848;48.354;10.064;2023-05-27T09:08:54;22.50;99.90
1702;DHT22;848;48.354;10.064;2023-05-27T09:11:22;22.50;99.90
1702;DHT22;848;48.354;10.064;2023-05-27T09:13:50;22.30;99.90
1702;DHT22;848;48.354;10.064;2023-05-27T09:16:20;22.40;99.90
1702;DHT22;848;48.354;10.064;2023-05-27T09:18:47;22.30;99.90
1702;DHT22;848;48.354;10.064;2023-05-27T09:21:16;22.10;99.90
1702;DHT22;848;48.354;10.064;2023-05-27T09:23:43;22.30;99.90
1702;DHT22;848;48.354;10.064;2023-05-27T09:26:11;22.40;99.90
1702;DHT22;848;48.354;10.064;2023-05-27T09:28:38;22.30;99.90
1702;DHT22;848;48.354;10.064;2023-05-27T09:31:06;22.20;99.90
1702;DHT22;848;48.354;10.064;2023-05-27T09:33:34;22.20;99.90
1702;DHT22;848;48.354;10.064;2023-05-27T09:36:03;22.40;99.90
1702;DHT22;848;48.354;10.064;2023-05-27T09:38:31;22.40;99.90
1702;DHT22;848;48.354;10.064;2023-05-27T09:40:59;22.50;99.90
1702;DHT22;848;48.354;10.064;2023-05-27T09:43:26;22.30;99.90
1702;DHT22;848;48.354;10.064;2023-05-27T09:45:59;22.30;99.90
1702;DHT22;848;48.354;10.064;2023-05-27T09:48:29;22.20;99.90
1702;DHT22;848;48.354;10.064;2023-05-27T09:50:57;22.10;99.90
1702;DHT22;848;48.354;10.064;2023-05-27T09:53:26;22.20;99.90
1702;DHT22;848;48.354;10.064;2023-05-27T09:55:55;22.30;99.90
1702;DHT22;848;48.354;10.064;2023-05-27T09:58:23;22.20;99.90
1702;DHT22;848;48.354;10.064;2023-05-27T10:00:50;22.30;99.90
1702;DHT22;848;48.354;10.064;2023-05-27T10:03:20;22.30;99.90
1702;DHT22;848;48.354;10.064;2023-05-27T10:05:49;22.10;99.90
1702;DHT22;848;48.354;10.064;2023-05-27T10:08:16;22.00;99.90
1702;DHT22;848;48.354;10.064;2023-05-27T10:10:44;21.80;99.90
1702;DHT22;848;48.354;10.064;2023-05-27T10:13:14;21.80;99.90
1702;DHT22;848;48.354;10.064;2023-05-27T10:15:46;21.70;99.90
1702;DHT22;848;48.354;10.064;2023-05-27T10:18:23;21.40;99.90
1702;DHT22;848;48.354;10.064;2023-05-27T10:20:52;21.20;99.90
1702;DHT22;848;48.354;10.064;2023-05-27T10:23:21;21.00;99.90
1702;DHT22;848;48.354;10.064;2023-05-27T10:25:49;20.90;99.90
1702;DHT22;848;48.354;10.064;2023-05-27T10:28:29;20.90;99.90
1702;DHT22;848;48.354;10.064;2023-05-27T10:31:04;20.70;99.90
1702;DHT22;848;48.354;10.064;2023-05-27T10:33:33;20.80;99.90
1702;DHT22;848;48.354;10.064;2023-05-27T10:36:06;20.80;99.90
1702;DHT22;848;48.354;10.064;2023-05-27T10:38:33;20.90;99.90
1702;DHT22;848;48.354;10.064;2023-05-27T10:41:02;20.90;99.90
1702;DHT22;848;48.354;10.064;2023-05-27T10:43:32;20.70;99.90
1702;DHT22;848;48.354;10.064;2023-05-27T10:46:04;20.60;99.90
1702;DHT22;848;48.354;10.064;2023-05-27T10:48:31;20.80;99.90
1702;DHT22;848;48.354;10.064;2023-05-27T10:51:00;20.70;99.90
1702;DHT22;848;48.354;10.064;2023-05-27T10:53:27;20.70;99.90
1702;DHT22;848;48.354;10.064;2023-05-27T10:55:58;20.60;99.90
1702;DHT22;848;48.354;10.064;2023-05-27T10:58:25;20.50;99.90
1702;DHT22;848;48.354;10.064;2023-05-27T11:00:55;20.60;99.90
1702;DHT22;848;48.354;10.064;2023-05-27T11:03:25;20.60;99.90
1702;DHT22;848;48.354;10.064;2023-05-27T11:06:02;20.70;99.90
1702;DHT22;848;48.354;10.064;2023-05-27T11:08:29;20.60;99.90
1702;DHT22;848;48.354;10.064;2023-05-27T11:11:00;20.70;99.90
1702;DHT22;848;48.354;10.064;2023-05-27T11:13:31;20.70;99.90
1702;DHT22;848;48.354;10.064;2023-05-27T11:16:01;20.60;99.90
1702;DHT22;848;48.354;10.064;2023-05-27T11:18:36;20.70;99.90
1702;DHT22;848;48.354;10.064;2023-05-27T11:21:04;20.70;99.90
1702;DHT22;848;48.354;10.064;2023-05-27T11:23:38;20.70;99.90
1702;DHT22;848;48.354;10.064;2023-05-27T11:26:13;20.70;99.90
1702;DHT22;848;48.354;10.064;2023-05-27T11:28:45;20.70;99.90
1702;DHT22;848;48.354;10.064;2023-05-27T11:31:14;20.70;99.90
1702;DHT22;848;48.354;10.064;2023-05-27T11:33:42;20.70;99.90
1702;DHT22;848;48.354;10.064;2023-05-27T11:36:12;20.60;99.90
1702;DHT22;848;48.354;10.064;2023-05-27T11:38:49;20.70;99.90
1702;DHT22;848;48.354;10.064;2023-05-27T11:41:16;20.70;99.90
1702;DHT22;848;48.354;10.064;2023-05-27T11:43:48;20.70;99.90
1702;DHT22;848;48.354;10.064;2023-05-27T11:46:17;20.60;99.90
1702;DHT22;848;48.354;10.064;2023-05-27T11:48:44;20.60;99.90
1702;DHT22;848;48.354;10.064;2023-05-27T11:51:11;20.60;99.90
1702;DHT22;848;48.354;10.064;2023-05-27T11:53:39;20.70;99.90
1702;DHT22;848;48.354;10.064;2023-05-27T11:56:07;20.80;99.90
1702;DHT22;848;48.354;10.064;2023-05-27T11:58:34;20.80;99.90
1702;DHT22;848;48.354;10.064;2023-05-27T12:01:02;20.80;99.90
1702;DHT22;848;48.354;10.064;2023-05-27T12:03:32;20.80;99.90
1702;DHT22;848;48.354;10.064;2023-05-27T12:05:59;20.70;99.90
1702;DHT22;848;48.354;10.064;2023-05-27T12:08:26;20.70;99.90
1702;DHT22;848;48.354;10.064;2023-05-27T12:10:53;20.70;99.90
1702;DHT22;848;48.354;10.064;2023-05-27T12:13:20;20.70;99.90
1702;DHT22;848;48.354;10.064;2023-05-27T12:15:48;20.70;99.90
1702;DHT22;848;48.354;10.064;2023-05-27T12:18:15;20.70;99.90
1702;DHT22;848;48.354;10.064;2023-05-27T12:20:44;20.70;99.90
1702;DHT22;848;48.354;10.064;2023-05-27T12:23:11;20.80;99.90
1702;DHT22;848;48.354;10.064;2023-05-27T12:25:38;20.70;99.90
1702;DHT22;848;48.354;10.064;2023-05-27T12:28:06;20.80;99.90
1702;DHT22;848;48.354;10.064;2023-05-27T12:30:33;20.80;99.90
1702;DHT22;848;48.354;10.064;2023-05-27T12:33:01;20.80;99.90
1702;DHT22;848;48.354;10.064;2023-05-27T12:35:28;20.80;99.90
1702;DHT22;848;48.354;10.064;2023-05-27T12:37:56;20.80;99.90
1702;DHT22;848;48.354;10.064;2023-05-27T12:40:24;20.90;99.90
1702;DHT22;848;48.354;10.064;2023-05-27T12:42:51;20.80;99.90
1702;DHT22;848;48.354;10.064;2023-05-27T12:45:18;20.90;99.90
1702;DHT22;848;48.354;10.064;2023-05-27T12:47:47;20.90;99.90
1702;DHT22;848;48.354;10.064;2023-05-27T12:50:14;21.00;99.90
1702;DHT22;848;48.354;10.064;2023-05-27T12:52:42;20.90;99.90
1702;DHT22;848;48.354;10.064;2023-05-27T12:55:13;20.90;99.90
1702;DHT22;848;48.354;10.064;2023-05-27T12:57:42;21.00;99.90
1702;DHT22;848;48.354;10.064;2023-05-27T13:00:10;20.90;99.90
1702;DHT22;848;48.354;10.064;2023-05-27T13:02:38;20.80;99.90
1702;DHT22;848;48.354;10.064;2023-05-27T13:05:05;20.80;99.90
1702;DHT22;848;48.354;10.064;2023-05-27T13:07:32;20.80;99.90
1702;DHT22;848;48.354;10.064;2023-05-27T13:10:01;20.70;99.90
1702;DHT22;848;48.354;10.064;2023-05-27T13:12:29;20.80;99.90
1702;DHT22;848;48.354;10.064;2023-05-27T13:14:57;20.80;99.90
1702;DHT22;848;48.354;10.064;2023-05-27T13:17:24;20.80;99.90
1702;DHT22;848;48.354;10.064;2023-05-27T13:19:51;20.90;99.90
1702;DHT22;848;48.354;10.064;2023-05-27T13:22:18;20.80;99.90
1702;DHT22;848;48.354;10.064;2023-05-27T13:24:45;20.70;99.90
1702;DHT22;848;48.354;10.064;2023-05-27T13:27:12;20.80;99.90
1702;DHT22;848;48.354;10.064;2023-05-27T13:29:41;20.90;99.90
1702;DHT22;848;48.354;10.064;2023-05-27T13:32:08;21.00;99.90
1702;DHT22;848;48.354;10.064;2023-05-27T13:34:35;21.00;99.90
1702;DHT22;848;48.354;10.064;2023-05-27T13:37:02;21.10;99.90
1702;DHT22;848;48.354;10.064;2023-05-27T13:39:29;21.00;99.90
1702;DHT22;848;48.354;10.064;2023-05-27T13:41:57;21.00;99.90
1702;DHT22;848;48.354;10.064;2023-05-27T13:44:24;21.00;99.90
1702;DHT22;848;48.354;10.064;2023-05-27T13:46:52;21.00;99.90
1702;DHT22;848;48.354;10.064;2023-05-27T13:49:19;21.00;99.90
1702;DHT22;848;48.354;10.064;2023-05-27T13:51:47;21.10;99.90
1702;DHT22;848;48.354;10.064;2023-05-27T13:54:14;21.20;99.90
1702;DHT22;848;48.354;10.064;2023-05-27T13:56:41;21.20;99.90
1702;DHT22;848;48.354;10.064;2023-05-27T13:59:07;21.10;99.90
1702;DHT22;848;48.354;10.064;2023-05-27T14:01:35;21.10;99.90
1702;DHT22;848;48.354;10.064;2023-05-27T14:04:04;21.10;99.90
1702;DHT22;848;48.354;10.064;2023-05-27T14:06:31;21.00;99.90
1702;DHT22;848;48.354;10.064;2023-05-27T14:08:58;21.10;99.90
1702;DHT22;848;48.354;10.064;2023-05-27T14:11:25;21.00;99.90
1702;DHT22;848;48.354;10.064;2023-05-27T14:13:53;21.00;99.90
1702;DHT22;848;48.354;10.064;2023-05-27T14:16:21;21.00;99.90
1702;DHT22;848;48.354;10.064;2023-05-27T14:18:48;20.90;99.90
1702;DHT22;848;48.354;10.064;2023-05-27T14:21:16;21.00;99.90
1702;DHT22;848;48.354;10.064;2023-05-27T14:23:44;21.00;99.90
1702;DHT22;848;48.354;10.064;2023-05-27T14:26:11;20.90;99.90
1702;DHT22;848;48.354;10.064;2023-05-27T14:28:38;21.10;99.90
1702;DHT22;848;48.354;10.064;2023-05-27T14:31:05;21.10;99.90
1702;DHT22;848;48.354;10.064;2023-05-27T14:33:32;21.00;99.90
1702;DHT22;848;48.354;10.064;2023-05-27T14:35:59;20.90;99.90
1702;DHT22;848;48.354;10.064;2023-05-27T14:38:27;21.00;99.90
1702;DHT22;848;48.354;10.064;2023-05-27T14:40:54;21.10;99.90
1702;DHT22;848;48.354;10.064;2023-05-27T14:43:21;21.10;99.90
1702;DHT22;848;48.354;10.064;2023-05-27T14:45:48;21.10;99.90
1702;DHT22;848;48.354;10.064;2023-05-27T14:48:15;21.10;99.90
1702;DHT22;848;48.354;10.064;2023-05-27T14:50:42;21.10;99.90
1702;DHT22;848;48.354;10.064;2023-05-27T14:53:09;21.20;99.90
1702;DHT22;848;48.354;10.064;2023-05-27T14:55:37;21.20;99.90
1702;DHT22;848;48.354;10.064;2023-05-27T14:58:04;21.20;99.90
1702;DHT22;848;48.354;10.064;2023-05-27T15:00:32;21.20;99.90
1702;DHT22;848;48.354;10.064;2023-05-27T15:02:59;21.20;99.90
1702;DHT22;848;48.354;10.064;2023-05-27T15:05:26;21.20;99.90
1702;DHT22;848;48.354;10.064;2023-05-27T15:07:52;21.30;99.90
1702;DHT22;848;48.354;10.064;2023-05-27T15:10:19;21.30;99.90
1702;DHT22;848;48.354;10.064;2023-05-27T15:12:48;21.20;99.90
1702;DHT22;848;48.354;10.064;2023-05-27T15:15:18;21.20;99.90
1702;DHT22;848;48.354;10.064;2023-05-27T15:17:46;21.30;99.90
1702;DHT22;848;48.354;10.064;2023-05-27T15:20:15;21.20;99.90
1702;DHT22;848;48.354;10.064;2023-05-27T15:22:42;21.30;99.90
1702;DHT22;848;48.354;10.064;2023-05-27T15:25:09;21.30;99.90
1702;DHT22;848;48.354;10.064;2023-05-27T15:27:36;21.20;99.90
1702;DHT22;848;48.354;10.064;2023-05-27T15:30:05;21.20;99.90
1702;DHT22;848;48.354;10.064;2023-05-27T15:32:33;21.20;99.90
1702;DHT22;848;48.354;10.064;2023-05-27T15:35:00;21.20;99.90
1702;DHT22;848;48.354;10.064;2023-05-27T15:37:29;21.30;99.90
1702;DHT22;848;48.354;10.064;2023-05-27T15:39:55;21.20;99.90
1702;DHT22;848;48.354;10.064;2023-05-27T15:42:22;21.10;99.90
1702;DHT22;848;48.354;10.064;2023-05-27T15:44:50;21.10;99.90
1702;DHT22;848;48.354;10.064;2023-05-27T15:47:19;21.20;99.90
1702;DHT22;848;48.354;10.064;2023-05-27T15:49:46;21.30;99.90
1702;DHT22;848;48.354;10.064;2023-05-27T15:52:12;21.30;99.90
1702;DHT22;848;48.354;10.064;2023-05-27T15:54:40;21.30;99.90
1702;DHT22;848;48.354;10.064;2023-05-27T15:57:08;21.30;99.90
1702;DHT22;848;48.354;10.064;2023-05-27T15:59:34;21.20;99.90
1702;DHT22;848;48.354;10.064;2023-05-27T16:02:01;21.10;99.90
1702;DHT22;848;48.354;10.064;2023-05-27T16:04:30;20.90;99.90
1702;DHT22;848;48.354;10.064;2023-05-27T16:06:57;21.00;99.90